Time;durP1;ratioP1;P1;durP2;ratioP2;P2;SDS_P1;SDS_P2;PMS_P1;PMS_P2;Temp;Humidity;BMP_temperature;BMP_pressure;BME280_temperature;BME280_humidity;BME280_pressure;Samples;Min_cycle;Max_cycle;Signal;HPM_P1;HPM_P2
2024/01/22 00:01:36;;;;;;;9.07;4.50;;;-3.40;99.90;;;;;;4972996;28;20484;-51
2024/01/22 00:04:03;;;;;;;9.88;4.72;;;-3.40;99.90;;;;;;4973102;28;20047;-52
2024/01/22 00:06:30;;;;;;;9.65;4.93;;;-3.40;99.90;;;;;;4967641;28;20101;-53
2024/01/22 00:08:57;;;;;;;12.32;5.00;;;-3.40;99.90;;;;;;4973229;28;20050;-52
2024/01/22 00:11:23;;;;;;;9.27;4.57;;;-3.30;99.90;;;;;;4973272;28;20130;-57
2024/01/22 00:13:50;;;;;;;11.10;4.25;;;-3.30;99.90;;;;;;4972019;28;20042;-51
2024/01/22 00:16:17;;;;;;;12.18;4.40;;;-3.20;99.90;;;;;;4982194;28;20045;-53
2024/01/22 00:18:44;;;;;;;9.02;4.65;;;-3.20;99.90;;;;;;4977616;28;20071;-55
2024/01/22 00:21:10;;;;;;;18.48;4.78;;;-3.20;99.90;;;;;;4978234;28;20077;-53
2024/01/22 00:23:37;;;;;;;12.13;4.75;;;-3.20;99.90;;;;;;4975709;28;20110;-52
2024/01/22 00:26:04;;;;;;;16.13;4.85;;;-3.10;99.90;;;;;;4976618;28;20460;-55
2024/01/22 00:28:31;;;;;;;10.82;4.70;;;-3.10;99.90;;;;;;4973650;28;20526;-52
2024/01/22 00:30:58;;;;;;;18.75;5.15;;;-3.10;99.90;;;;;;4982379;28;20056;-52
2024/01/22 00:33:24;;;;;;;9.25;4.63;;;-3.10;99.90;;;;;;4977749;28;20043;-55
2024/01/22 00:35:51;;;;;;;9.10;5.03;;;-3.10;99.90;;;;;;4968652;28;20494;-53
2024/01/22 00:38:18;;;;;;;9.25;4.25;;;-3.20;99.90;;;;;;4979474;28;20054;-53
2024/01/22 00:40:45;;;;;;;9.85;5.22;;;-3.20;99.90;;;;;;4978872;28;20038;-51
2024/01/22 00:43:12;;;;;;;14.90;5.45;;;-3.20;99.90;;;;;;4976634;28;20051;-52
2024/01/22 00:45:39;;;;;;;12.07;4.75;;;-3.30;99.90;;;;;;4981073;28;20069;-52
2024/01/22 00:48:06;;;;;;;10.88;5.18;;;-3.30;99.90;;;;;;4977166;28;20043;-53
2024/01/22 00:50:33;;;;;;;12.73;5.38;;;-3.40;99.90;;;;;;4975596;28;20058;-54
2024/01/22 00:53:00;;;;;;;9.82;4.85;;;-3.50;99.90;;;;;;4977873;28;20042;-52
2024/01/22 00:55:26;;;;;;;9.40;4.68;;;-3.70;99.90;;;;;;4979503;28;20139;-53
2024/01/22 00:57:53;;;;;;;9.63;4.75;;;-3.70;99.90;;;;;;4953854;28;20038;-51
2024/01/22 01:00:20;;;;;;;12.63;4.10;;;-3.80;99.90;;;;;;4970418;28;20041;-52
2024/01/22 01:02:49;;;;;;;11.10;4.22;;;-3.70;99.90;;;;;;4979282;28;20047;-55
2024/01/22 01:05:16;;;;;;;9.93;4.32;;;-3.70;99.90;;;;;;4955205;28;20097;-51
2024/01/22 01:07:43;;;;;;;11.13;4.72;;;-3.80;99.90;;;;;;4980621;28;20046;-52
2024/01/22 01:10:11;;;;;;;10.90;4.72;;;-3.80;99.90;;;;;;4977718;28;20031;-53
2024/01/22 01:12:37;;;;;;;16.83;6.07;;;-3.80;99.90;;;;;;4982673;28;20047;-54
2024/01/22 01:15:08;;;;;;;12.68;5.50;;;-3.80;99.90;;;;;;4978200;28;20035;-51
2024/01/22 01:17:36;;;;;;;11.48;4.82;;;-3.80;99.90;;;;;;4971627;28;20050;-54
2024/01/22 01:20:04;;;;;;;8.35;4.32;;;-3.80;99.90;;;;;;4981675;28;20035;-52
2024/01/22 01:22:31;;;;;;;10.15;4.15;;;-3.80;99.90;;;;;;4981157;28;20566;-52
2024/01/22 01:24:58;;;;;;;10.40;4.57;;;-3.90;99.90;;;;;;4980933;28;20065;-53
2024/01/22 01:27:25;;;;;;;;;;;-3.90;99.90;;;;;;4972454;28;20043;-51
2024/01/22 01:29:53;;;;;;;13.98;4.20;;;-3.90;99.90;;;;;;4979090;28;19933;-52
2024/01/22 01:32:19;;;;;;;7.10;2.25;;;-3.90;99.90;;;;;;4976095;28;20133;-54
2024/01/22 01:34:46;;;;;;;10.55;2.65;;;-4.00;99.90;;;;;;4981302;28;20081;-51
2024/01/22 01:37:13;;;;;;;5.95;2.50;;;-4.20;99.90;;;;;;4966793;28;20030;-54
2024/01/22 01:39:40;;;;;;;5.05;2.38;;;-4.30;99.90;;;;;;4977050;28;20511;-51
2024/01/22 01:42:07;;;;;;;6.75;3.03;;;-4.40;99.90;;;;;;4982800;28;20043;-51
2024/01/22 01:44:37;;;;;;;8.05;3.33;;;-4.40;99.90;;;;;;4971378;28;20105;-53
2024/01/22 01:47:05;;;;;;;9.32;4.18;;;-4.40;99.90;;;;;;4975256;28;20050;-51
2024/01/22 01:49:32;;;;;;;12.25;3.65;;;-4.40;99.90;;;;;;4979631;28;20403;-52
2024/01/22 01:51:59;;;;;;;9.75;4.45;;;-4.40;99.90;;;;;;4967789;28;20507;-53
2024/01/22 01:54:28;;;;;;;8.27;4.50;;;-4.30;99.90;;;;;;4972280;28;20403;-55
2024/01/22 01:56:55;;;;;;;8.00;4.55;;;-4.20;99.90;;;;;;4976667;28;20050;-52
2024/01/22 01:59:23;;;;;;;8.93;4.22;;;-4.00;99.90;;;;;;4980624;28;20101;-52
2024/01/22 02:01:49;;;;;;;14.98;4.53;;;-3.90;99.90;;;;;;4977583;28;20035;-52
2024/01/22 02:04:17;;;;;;;8.73;4.72;;;-3.80;99.90;;;;;;4978671;28;20094;-51
2024/01/22 02:06:43;;;;;;;;;;;-3.80;99.90;;;;;;4983735;28;20205;-51
2024/01/22 02:09:11;;;;;;;10.85;4.90;;;-3.70;99.90;;;;;;4976622;28;19929;-53
2024/01/22 02:11:37;;;;;;;12.20;4.30;;;-3.70;99.90;;;;;;4976267;28;20045;-54
2024/01/22 02:14:04;;;;;;;12.68;4.93;;;-3.70;99.90;;;;;;4978751;28;20067;-52
2024/01/22 02:16:31;;;;;;;11.23;4.32;;;-3.70;99.90;;;;;;4956069;28;20035;-53
2024/01/22 02:18:58;;;;;;;8.70;4.32;;;-3.70;99.90;;;;;;4980599;28;20077;-52
2024/01/22 02:21:25;;;;;;;8.60;4.40;;;-3.70;99.90;;;;;;4979471;28;20049;-55
2024/01/22 02:23:52;;;;;;;7.55;3.72;;;-3.70;99.90;;;;;;4977221;28;20047;-54
2024/01/22 02:30:56;;;;;;;10.10;4.13;;;-3.60;99.90;;;;;;4974410;28;20077;-55
2024/01/22 02:33:23;;;;;;;11.40;4.13;;;-3.50;99.90;;;;;;4981420;28;20126;-53
2024/01/22 02:35:49;;;;;;;9.80;4.32;;;-3.50;99.90;;;;;;4966844;28;20030;-52
2024/01/22 02:38:16;;;;;;;8.18;3.80;;;-3.50;99.90;;;;;;4974716;28;20035;-52
2024/01/22 02:40:43;;;;;;;6.35;3.45;;;-3.40;99.90;;;;;;4974958;28;20043;-54
2024/01/22 02:43:10;;;;;;;7.57;3.25;;;-3.30;99.90;;;;;;4966980;28;20096;-52
2024/01/22 02:45:37;;;;;;;8.30;3.67;;;-3.30;99.90;;;;;;4967571;28;20444;-54
2024/01/22 02:48:04;;;;;;;8.75;3.80;;;-3.30;99.90;;;;;;4974942;28;20043;-53
2024/01/22 02:50:31;;;;;;;11.43;4.15;;;-3.20;99.90;;;;;;4974720;28;20053;-52
2024/01/22 02:52:58;;;;;;;11.90;3.65;;;-3.10;99.90;;;;;;4966293;28;20047;-52
2024/01/22 02:55:24;;;;;;;11.05;4.10;;;-3.20;99.90;;;;;;4964962;28;20043;-52
2024/01/22 02:57:51;;;;;;;8.18;4.13;;;-3.30;99.90;;;;;;4971452;28;20056;-51
2024/01/22 03:00:18;;;;;;;13.02;3.58;;;-3.30;99.90;;;;;;4970951;28;20047;-51
2024/01/22 03:02:45;;;;;;;;;;;-3.20;99.90;;;;;;4970267;28;20109;-53
2024/01/22 03:05:12;;;;;;;9.77;3.95;;;-3.20;99.90;;;;;;4963849;28;20012;-51
2024/01/22 03:07:39;;;;;;;6.90;3.28;;;-3.30;99.90;;;;;;4965407;28;20042;-51
2024/01/22 03:10:06;;;;;;;5.00;2.20;;;-3.30;99.90;;;;;;4966559;28;20051;-53
2024/01/22 03:12:33;;;;;;;5.10;1.85;;;-3.50;99.90;;;;;;4972994;28;20384;-52
2024/01/22 03:15:00;;;;;;;4.55;2.10;;;-3.70;99.90;;;;;;4974369;28;20047;-56
2024/01/22 03:17:26;;;;;;;6.75;2.67;;;-3.90;99.90;;;;;;4974206;28;20035;-54
2024/01/22 03:19:54;;;;;;;7.03;2.88;;;-4.00;99.90;;;;;;4968508;28;20062;-52
2024/01/22 03:22:20;;;;;;;11.27;3.47;;;-4.10;99.90;;;;;;4974528;28;20038;-56
2024/01/22 03:24:48;;;;;;;9.35;4.28;;;-4.10;99.90;;;;;;4974056;28;20373;-52
2024/01/22 03:27:15;;;;;;;7.43;3.92;;;-4.10;99.90;;;;;;4964691;28;20047;-54
2024/01/22 03:29:42;;;;;;;6.70;3.45;;;-4.00;99.90;;;;;;4969585;28;20051;-51
2024/01/22 03:32:09;;;;;;;11.05;3.63;;;-3.90;99.90;;;;;;4973025;28;20050;-53
2024/01/22 03:34:35;;;;;;;7.00;3.05;;;-3.90;99.90;;;;;;4965866;28;20415;-55
2024/01/22 03:37:02;;;;;;;10.68;4.10;;;-4.00;99.90;;;;;;4973618;28;20089;-52
2024/01/22 03:39:29;;;;;;;10.00;4.40;;;-4.00;99.90;;;;;;4973343;28;20066;-53
2024/01/22 03:41:56;;;;;;;10.73;4.28;;;-3.90;99.90;;;;;;4963423;28;20078;-53
2024/01/22 03:44:23;;;;;;;11.88;4.95;;;-3.80;99.90;;;;;;4973798;28;20034;-53
2024/01/22 03:46:50;;;;;;;10.98;3.92;;;-3.80;99.90;;;;;;4973506;28;20046;-52
2024/01/22 03:49:16;;;;;;;6.15;3.35;;;-3.80;99.90;;;;;;4969177;28;20050;-52
2024/01/22 03:51:43;;;;;;;;;;;-3.80;99.90;;;;;;4974446;28;20388;-55
2024/01/22 03:54:10;;;;;;;8.15;4.00;;;-3.80;99.90;;;;;;4972754;28;20000;-52
2024/01/22 03:56:37;;;;;;;10.07;4.70;;;-3.70;99.90;;;;;;4970369;28;20091;-51
2024/01/22 03:59:04;;;;;;;8.68;4.25;;;-3.70;99.90;;;;;;4971504;28;20492;-51
2024/01/22 04:01:31;;;;;;;10.38;4.28;;;-3.70;99.90;;;;;;4965655;28;20578;-52
2024/01/22 04:03:58;;;;;;;12.38;3.80;;;-3.70;99.90;;;;;;4973272;28;20524;-56
2024/01/22 04:06:24;;;;;;;11.25;3.78;;;-3.70;99.90;;;;;;4964469;28;20448;-52
2024/01/22 04:08:51;;;;;;;9.27;3.90;;;-3.70;99.90;;;;;;4958574;28;20047;-53
2024/01/22 04:11:18;;;;;;;8.77;3.78;;;-3.80;99.90;;;;;;4972296;28;20050;-57
2024/01/22 04:13:45;;;;;;;9.35;3.80;;;-3.80;99.90;;;;;;4968340;28;20040;-53
2024/01/22 04:16:15;;;;;;;9.93;3.70;;;-3.80;99.90;;;;;;4971841;28;20166;-52
2024/01/22 04:18:42;;;;;;;8.77;3.00;;;-3.80;99.90;;;;;;4972680;28;20502;-52
2024/01/22 04:21:10;;;;;;;6.88;2.08;;;-3.90;99.90;;;;;;4968058;28;20117;-53
2024/01/22 04:23:37;;;;;;;5.35;2.67;;;-4.00;99.90;;;;;;4972746;28;20118;-53
2024/01/22 04:26:05;;;;;;;6.82;2.85;;;-4.10;99.90;;;;;;4972460;28;20070;-54
2024/01/22 04:28:31;;;;;;;6.30;3.03;;;-4.10;99.90;;;;;;4971748;28;20046;-53
2024/01/22 04:30:58;;;;;;;8.13;3.70;;;-4.10;99.90;;;;;;4969736;28;20050;-54
2024/01/22 04:33:25;;;;;;;8.48;3.72;;;-4.00;99.90;;;;;;4964153;28;20039;-54
2024/01/22 04:35:52;;;;;;;9.95;3.60;;;-3.90;99.90;;;;;;4973146;28;20127;-52
2024/01/22 04:38:19;;;;;;;12.38;3.10;;;-3.80;99.90;;;;;;4971832;28;20051;-53
2024/01/22 04:40:46;;;;;;;11.95;3.70;;;-3.80;99.90;;;;;;4972888;28;20692;-53
2024/01/22 04:43:13;;;;;;;7.80;3.25;;;-3.70;99.90;;;;;;4972220;28;20058;-53
2024/01/22 04:45:40;;;;;;;6.80;3.03;;;-3.70;99.90;;;;;;4972674;28;20440;-55
2024/01/22 04:48:07;;;;;;;7.72;3.58;;;-3.60;99.90;;;;;;4963848;28;20098;-54
2024/01/22 04:50:34;;;;;;;7.13;3.70;;;-3.60;99.90;;;;;;4973011;28;20046;-52
2024/01/22 04:53:01;;;;;;;5.32;2.70;;;-3.60;99.90;;;;;;4971941;28;20050;-54
2024/01/22 04:55:27;;;;;;;6.72;2.75;;;-3.60;99.90;;;;;;4969722;28;20084;-51
2024/01/22 04:58:00;;;;;;;8.93;3.35;;;-3.60;99.90;;;;;;4968527;28;20050;-53
2024/01/22 05:00:27;;;;;;;;;;;-3.60;99.90;;;;;;4966436;28;20555;-52
2024/01/22 05:02:54;;;;;;;4.80;2.65;;;-3.60;99.90;;;;;;4966017;28;19927;-53
2024/01/22 05:05:23;;;;;;;11.52;4.60;;;-3.60;99.90;;;;;;4971217;28;20057;-52
2024/01/22 05:07:50;;;;;;;12.95;4.63;;;-3.60;99.90;;;;;;4958632;28;20051;-55
2024/01/22 05:10:16;;;;;;;25.35;8.38;;;-3.60;99.90;;;;;;4963627;28;20058;-53
2024/01/22 05:12:43;;;;;;;26.88;9.32;;;-3.60;99.90;;;;;;4972415;28;20043;-54
2024/01/22 05:15:13;;;;;;;17.70;6.82;;;-3.60;99.90;;;;;;4964024;28;20365;-55
2024/01/22 05:17:41;;;;;;;8.18;3.15;;;-3.60;99.90;;;;;;4960257;28;20043;-52
2024/01/22 05:20:09;;;;;;;10.30;3.80;;;-3.60;99.90;;;;;;4972017;28;20435;-52
2024/01/22 05:22:36;;;;;;;7.07;2.63;;;-3.60;99.90;;;;;;4972392;28;20047;-51
2024/01/22 05:25:03;;;;;;;10.60;2.75;;;-3.50;99.90;;;;;;4964382;28;20062;-55
2024/01/22 05:27:30;;;;;;;;;;;-3.50;99.90;;;;;;4972134;28;20053;-51
2024/01/22 05:29:57;;;;;;;7.40;3.13;;;-3.40;99.90;;;;;;4964003;28;19961;-53
2024/01/22 05:32:24;;;;;;;8.35;2.63;;;-3.40;99.90;;;;;;4971502;28;20491;-53
2024/01/22 05:34:51;;;;;;;3.88;2.38;;;-3.40;99.90;;;;;;4975105;28;20043;-53
2024/01/22 05:37:18;;;;;;;7.15;3.38;;;-3.40;99.90;;;;;;4984122;28;20440;-55
2024/01/22 05:39:44;;;;;;;8.80;3.22;;;-3.40;99.90;;;;;;4955364;28;20093;-53
2024/01/22 05:42:11;;;;;;;7.65;3.50;;;-3.40;99.90;;;;;;4975609;28;20047;-51
2024/01/22 05:44:38;;;;;;;4.55;2.65;;;-3.40;99.90;;;;;;4972909;28;20035;-54
2024/01/22 05:47:06;;;;;;;8.52;3.42;;;-3.40;99.90;;;;;;4976060;28;20500;-51
2024/01/22 05:49:32;;;;;;;12.77;4.93;;;-3.40;99.90;;;;;;4966768;28;20042;-54
2024/01/22 05:51:59;;;;;;;15.13;6.00;;;-3.50;99.90;;;;;;4969531;28;20147;-51
2024/01/22 05:54:26;;;;;;;9.82;4.03;;;-3.50;99.90;;;;;;4971081;28;20488;-52
2024/01/22 05:56:53;;;;;;;9.30;3.42;;;-3.50;99.90;;;;;;4970619;28;20444;-53
2024/01/22 05:59:20;;;;;;;6.03;2.95;;;-3.50;99.90;;;;;;4975042;28;20500;-53
2024/01/22 06:01:46;;;;;;;5.43;3.38;;;-3.30;99.90;;;;;;4975150;28;20046;-51
2024/01/22 06:04:15;;;;;;;7.03;3.42;;;-3.30;99.90;;;;;;4949667;28;20039;-51
2024/01/22 06:06:42;;;;;;;6.95;3.65;;;-3.30;99.90;;;;;;4974154;28;20409;-53
2024/01/22 06:09:09;;;;;;;8.40;4.95;;;-3.30;99.90;;;;;;4966426;28;20035;-51
2024/01/22 06:11:36;;;;;;;7.22;4.03;;;-3.30;99.90;;;;;;4968158;28;20035;-55
2024/01/22 06:14:04;;;;;;;10.77;5.88;;;-3.30;99.90;;;;;;4973261;28;20049;-55
2024/01/22 06:16:30;;;;;;;;;;;-3.40;99.90;;;;;;4966517;28;20053;-51
2024/01/22 06:18:58;;;;;;;10.65;4.85;;;-3.40;99.90;;;;;;4965312;28;19976;-54
2024/01/22 06:21:25;;;;;;;12.50;5.28;;;-3.40;99.90;;;;;;4972078;28;20404;-56
2024/01/22 06:23:52;;;;;;;14.90;5.63;;;-3.50;99.90;;;;;;4972339;28;20039;-51
2024/01/22 06:26:21;;;;;;;14.90;5.63;;;-3.50;99.90;;;;;;4974506;28;20061;-52
2024/01/22 06:28:48;;;;;;;10.82;5.50;;;-3.60;99.90;;;;;;4962303;28;20054;-53
2024/01/22 06:31:15;;;;;;;;;;;-3.60;99.90;;;;;;4971233;28;20050;-51
2024/01/22 06:33:42;;;;;;;14.07;5.80;;;-3.60;99.90;;;;;;4966513;28;20017;-57
2024/01/22 06:36:09;;;;;;;17.33;6.60;;;-3.60;99.90;;;;;;4974389;28;20154;-52
2024/01/22 06:38:36;;;;;;;13.10;6.10;;;-3.70;99.90;;;;;;4974830;28;20475;-54
2024/01/22 06:41:10;;;;;;;9.38;4.68;;;-3.70;99.90;;;;;;4955260;28;20527;-51
2024/01/22 06:43:37;;;;;;;8.57;3.92;;;-3.70;99.90;;;;;;4974126;28;20042;-55
2024/01/22 06:46:04;;;;;;;;;;;-3.60;99.90;;;;;;4975351;28;20401;-52
2024/01/22 06:48:31;;;;;;;11.85;5.68;;;-3.60;99.90;;;;;;4965979;28;19950;-54
2024/01/22 06:50:58;;;;;;;10.80;4.38;;;-3.60;99.90;;;;;;4974469;28;20053;-52
2024/01/22 06:53:25;;;;;;;12.43;3.88;;;-3.50;99.90;;;;;;4966124;28;20374;-55
2024/01/22 06:55:52;;;;;;;8.98;3.72;;;-3.50;99.90;;;;;;4974959;28;20109;-51
2024/01/22 06:58:20;;;;;;;9.85;3.72;;;-3.50;99.90;;;;;;4962923;28;20201;-51
2024/01/22 07:00:47;;;;;;;13.35;5.38;;;-3.50;99.90;;;;;;4967351;28;20541;-51
2024/01/22 07:03:14;;;;;;;20.33;8.00;;;-3.70;99.90;;;;;;4973675;28;20050;-53
2024/01/22 07:05:42;;;;;;;10.57;4.25;;;-3.80;99.90;;;;;;4968698;28;20039;-54
2024/01/22 07:08:09;;;;;;;9.98;3.83;;;-3.90;99.90;;;;;;4969698;28;20038;-52
2024/01/22 07:10:36;;;;;;;19.27;7.43;;;-3.90;99.90;;;;;;4972258;28;20054;-52
2024/01/22 07:13:03;;;;;;;9.35;5.07;;;-3.80;99.90;;;;;;4971065;28;20051;-51
2024/01/22 07:15:31;;;;;;;14.68;5.97;;;-3.70;99.90;;;;;;4973005;28;20077;-55
2024/01/22 07:17:58;;;;;;;13.45;5.95;;;-3.60;99.90;;;;;;4973544;28;20134;-55
2024/01/22 07:20:25;;;;;;;11.07;4.47;;;-3.50;99.90;;;;;;4955710;28;20427;-51
2024/01/22 07:22:53;;;;;;;9.55;3.97;;;-3.30;99.90;;;;;;4973803;28;20126;-52
2024/01/22 07:25:21;;;;;;;7.35;4.15;;;-3.30;99.90;;;;;;4965547;28;20093;-52
2024/01/22 07:27:48;;;;;;;;;;;-3.30;99.90;;;;;;4974378;28;20049;-54
2024/01/22 07:30:16;;;;;;;9.13;3.80;;;-3.20;99.90;;;;;;4965851;28;19933;-52
2024/01/22 07:32:43;;;;;;;5.65;2.90;;;-3.10;99.90;;;;;;4972341;28;20129;-53
2024/01/22 07:35:13;;;;;;;9.13;3.10;;;-3.00;99.90;;;;;;4972748;28;20077;-51
2024/01/22 07:37:44;;;;;;;4.70;2.47;;;-3.00;99.90;;;;;;4970623;28;20058;-52
2024/01/22 07:40:12;;;;;;;5.20;2.42;;;-2.90;99.90;;;;;;4968791;28;20043;-51
2024/01/22 07:42:41;;;;;;;7.05;3.42;;;-2.80;99.90;;;;;;4964379;28;20039;-55
2024/01/22 07:45:09;;;;;;;6.22;2.75;;;-2.70;99.90;;;;;;4968628;28;20046;-52
2024/01/22 07:47:36;;;;;;;5.95;3.22;;;-2.60;99.90;;;;;;4965128;28;20043;-51
2024/01/22 07:50:05;;;;;;;5.70;3.25;;;-2.50;99.90;;;;;;4965448;28;20137;-53
2024/01/22 07:52:33;;;;;;;7.40;3.42;;;-2.40;99.90;;;;;;4964218;28;20057;-51
2024/01/22 07:55:01;;;;;;;8.93;3.80;;;-2.30;99.90;;;;;;4966229;28;20049;-52
2024/01/22 07:57:29;;;;;;;7.50;3.28;;;-2.20;99.90;;;;;;4973238;28;20138;-51
2024/01/22 07:59:55;;;;;;;;;;;-2.10;99.90;;;;;;4965079;28;20125;-53
2024/01/22 08:02:22;;;;;;;6.85;3.95;;;-2.00;99.90;;;;;;4958969;28;20351;-54
2024/01/22 08:04:50;;;;;;;8.80;3.38;;;-2.00;99.90;;;;;;4972896;28;20051;-53
2024/01/22 08:07:22;;;;;;;7.15;3.60;;;-1.90;99.90;;;;;;4964751;28;20408;-52
2024/01/22 08:09:49;;;;;;;10.02;4.57;;;-1.80;99.90;;;;;;4973263;28;20053;-54
2024/01/22 08:12:16;;;;;;;11.88;4.18;;;-1.80;99.90;;;;;;4966592;28;20057;-51
2024/01/22 08:14:43;;;;;;;9.63;4.30;;;-1.70;99.90;;;;;;4972532;28;20595;-51
2024/01/22 08:17:10;;;;;;;9.18;4.57;;;-1.60;99.90;;;;;;4972767;28;20404;-51
2024/01/22 08:19:36;;;;;;;11.32;5.55;;;-1.60;99.90;;;;;;4955103;28;20416;-52
2024/01/22 08:22:04;;;;;;;10.98;5.90;;;-1.60;99.90;;;;;;4973406;28;20098;-53
2024/01/22 08:24:31;;;;;;;11.77;5.00;;;-1.50;99.90;;;;;;4964192;28;20423;-55
2024/01/22 08:27:00;;;;;;;10.05;5.80;;;-1.50;99.90;;;;;;4964779;28;20117;-54
2024/01/22 08:29:27;;;;;;;20.17;9.63;;;-1.40;99.90;;;;;;4972202;28;20445;-51
2024/01/22 08:31:54;;;;;;;17.20;8.85;;;-1.30;99.90;;;;;;4964462;28;20115;-52
2024/01/22 08:34:21;;;;;;;11.05;5.28;;;-1.20;99.90;;;;;;4972366;28;20050;-51
2024/01/22 08:36:49;;;;;;;17.13;7.00;;;-1.00;99.90;;;;;;4963552;28;20107;-54
2024/01/22 08:39:16;;;;;;;11.18;3.78;;;-1.10;99.90;;;;;;4970462;28;20085;-51
2024/01/22 08:41:43;;;;;;;7.43;3.65;;;-1.00;99.90;;;;;;4972636;28;20500;-52
2024/01/22 08:44:10;;;;;;;;;;;-0.80;99.90;;;;;;4966063;28;20047;-53
2024/01/22 08:46:37;;;;;;;11.63;3.22;;;-0.70;99.90;;;;;;4961988;28;19926;-53
2024/01/22 08:49:05;;;;;;;13.07;4.05;;;-0.60;99.90;;;;;;4971747;28;20058;-53
2024/01/22 08:51:32;;;;;;;7.60;3.92;;;-0.50;99.90;;;;;;4972340;28;20078;-52
2024/01/22 08:53:59;;;;;;;8.73;3.50;;;-0.30;99.90;;;;;;4964148;28;20105;-52
2024/01/22 08:56:26;;;;;;;9.93;4.10;;;-0.20;99.90;;;;;;4970317;28;20122;-52
2024/01/22 08:58:53;;;;;;;12.35;4.35;;;-0.20;99.90;;;;;;4964269;28;20510;-54
2024/01/22 09:01:20;;;;;;;14.15;4.18;;;-0.10;99.90;;;;;;4968925;28;20126;-54
2024/01/22 09:03:47;;;;;;;;;;;0.10;99.90;;;;;;4972346;28;20055;-52
2024/01/22 09:06:14;;;;;;;13.38;4.72;;;0.20;99.90;;;;;;4970924;28;20406;-54
2024/01/22 09:08:42;;;;;;;13.05;4.28;;;0.20;99.90;;;;;;4963989;28;20047;-51
2024/01/22 09:11:09;;;;;;;12.38;4.18;;;0.30;99.90;;;;;;4970686;28;20050;-53
2024/01/22 09:13:37;;;;;;;12.90;4.65;;;0.50;99.90;;;;;;4963639;28;20126;-52
2024/01/22 09:16:05;;;;;;;9.95;4.43;;;0.60;99.90;;;;;;4967565;28;20134;-53
2024/01/22 09:18:32;;;;;;;9.50;4.80;;;0.60;99.90;;;;;;4969124;28;20039;-52
2024/01/22 09:21:00;;;;;;;16.67;4.20;;;0.70;99.90;;;;;;4964118;28;20122;-54
2024/01/22 09:23:26;;;;;;;14.18;4.28;;;0.90;99.90;;;;;;4963593;28;20046;-53
2024/01/22 09:25:53;;;;;;;11.43;3.47;;;1.10;99.90;;;;;;4966959;28;20043;-53
2024/01/22 09:28:21;;;;;;;11.90;4.38;;;1.20;99.90;;;;;;4972057;28;20055;-53
2024/01/22 09:30:48;;;;;;;9.93;4.07;;;1.30;99.90;;;;;;4970552;28;20055;-52
2024/01/22 09:33:15;;;;;;;9.73;4.68;;;1.40;99.90;;;;;;4975400;28;20117;-52
2024/01/22 09:35:42;;;;;;;8.77;3.83;;;1.50;99.90;;;;;;4978995;28;20043;-53
2024/01/22 09:38:09;;;;;;;11.52;4.55;;;1.50;99.90;;;;;;4979449;28;20046;-53
2024/01/22 09:40:37;;;;;;;18.70;4.72;;;1.30;99.90;;;;;;4975813;28;20145;-54
2024/01/22 09:43:05;;;;;;;12.80;5.03;;;1.30;99.90;;;;;;4963398;28;20034;-52
2024/01/22 09:45:32;;;;;;;12.75;4.75;;;1.20;99.90;;;;;;4971964;28;20046;-53
2024/01/22 09:48:00;;;;;;;11.85;4.55;;;1.20;99.90;;;;;;4960954;28;20055;-52
2024/01/22 09:50:27;;;;;;;;;;;1.30;99.90;;;;;;4971312;28;20070;-52
2024/01/22 09:52:59;;;;;;;10.73;3.92;;;1.40;99.90;;;;;;4971310;28;19973;-54
2024/01/22 09:55:26;;;;;;;13.30;3.65;;;1.50;99.90;;;;;;4972173;28;20051;-54
2024/01/22 09:57:57;;;;;;;9.50;4.35;;;1.40;99.90;;;;;;4970112;28;20312;-54
2024/01/22 10:00:26;;;;;;;11.85;3.80;;;1.40;99.90;;;;;;4971945;28;20146;-54
2024/01/22 10:02:55;;;;;;;9.70;3.55;;;1.60;99.90;;;;;;4971313;28;20139;-52
2024/01/22 10:05:22;;;;;;;7.68;3.85;;;1.70;99.90;;;;;;4969177;28;20043;-55
2024/01/22 10:07:49;;;;;;;8.23;3.80;;;1.80;99.90;;;;;;4969248;28;20399;-53
2024/01/22 10:10:17;;;;;;;11.77;3.33;;;1.80;99.90;;;;;;4972104;28;20042;-52
2024/01/22 10:12:59;;;;;;;7.28;3.72;;;1.90;99.90;;;;;;4963609;28;20051;-52
2024/01/22 10:15:29;;;;;;;12.10;3.70;;;1.90;99.90;;;;;;4970886;28;20121;-55
2024/01/22 10:18:15;;;;;;;11.55;4.00;;;1.90;99.90;;;;;;4971222;28;20565;-54
2024/01/22 10:20:45;;;;;;;7.57;3.50;;;2.00;99.90;;;;;;4963304;28;20049;-53
2024/01/22 10:23:14;;;;;;;11.82;3.53;;;1.90;99.90;;;;;;4973738;28;20038;-52
2024/01/22 10:25:42;;;;;;;9.38;3.80;;;1.90;99.90;;;;;;4973633;28;20039;-53
2024/01/22 10:28:10;;;;;;;11.50;5.45;;;1.70;99.90;;;;;;4974908;28;20055;-53
2024/01/22 10:30:38;;;;;;;10.40;4.43;;;1.50;99.90;;;;;;4966828;28;20130;-56
2024/01/22 10:33:15;;;;;;;15.20;4.70;;;1.60;99.90;;;;;;4966968;28;20113;-53
2024/01/22 10:35:43;;;;;;;15.02;5.25;;;1.70;99.90;;;;;;4966836;28;20042;-52
2024/01/22 10:38:16;;;;;;;16.85;5.68;;;1.80;99.90;;;;;;4974265;28;20078;-52
2024/01/22 10:40:45;;;;;;;14.57;6.40;;;1.80;99.90;;;;;;4964048;28;20038;-53
2024/01/22 10:43:23;;;;;;;9.13;4.65;;;1.90;99.90;;;;;;4966001;28;20070;-52
2024/01/22 10:45:51;;;;;;;17.38;4.82;;;1.90;99.90;;;;;;4966167;28;20039;-54
2024/01/22 10:48:23;;;;;;;10.05;3.88;;;2.00;99.90;;;;;;4968501;28;20384;-52
2024/01/22 10:51:05;;;;;;;7.35;3.60;;;2.10;99.90;;;;;;4971729;28;20127;-54
2024/01/22 10:53:34;;;;;;;8.40;3.55;;;2.30;99.90;;;;;;4970243;28;20515;-52
2024/01/22 10:56:11;;;;;;;11.93;4.55;;;2.40;99.90;;;;;;4974350;28;20130;-51
2024/01/22 10:58:44;;;;;;;8.52;4.30;;;2.50;99.90;;;;;;4974103;28;20396;-56
2024/01/22 11:01:19;;;;;;;9.52;4.30;;;2.70;99.90;;;;;;4971212;28;20052;-55
2024/01/22 11:03:49;;;;;;;12.48;5.22;;;2.80;99.90;;;;;;4965750;28;20086;-53
2024/01/22 11:06:27;;;;;;;20.27;7.88;;;3.10;99.90;;;;;;4974269;28;20415;-52
2024/01/22 11:08:55;;;;;;;39.92;12.48;;;3.10;99.90;;;;;;4970454;28;20042;-53
2024/01/22 11:11:27;;;;;;;19.42;6.35;;;3.20;99.90;;;;;;4974387;28;20499;-57
2024/01/22 11:13:56;;;;;;;23.95;7.47;;;3.40;99.90;;;;;;4965488;28;20102;-55
2024/01/22 11:16:24;;;;;;;17.27;5.22;;;3.50;99.90;;;;;;4968521;28;20512;-53
2024/01/22 11:19:00;;;;;;;;;;;3.50;99.90;;;;;;4970722;28;20035;-55
2024/01/22 11:21:42;;;;;;;11.13;3.85;;;3.50;99.90;;;;;;4969839;28;19973;-57
2024/01/22 11:24:17;;;;;;;11.55;5.97;;;3.70;99.90;;;;;;4973445;28;20034;-56
2024/01/22 11:27:05;;;;;;;11.80;5.05;;;3.90;99.90;;;;;;4974148;28;20078;-54
2024/01/22 11:29:33;;;;;;;11.55;4.68;;;3.90;99.90;;;;;;4954653;28;20054;-55
2024/01/22 11:32:27;;;;;;;13.50;5.25;;;3.80;99.90;;;;;;4972690;28;20082;-54
2024/01/22 11:34:58;;;;;;;11.60;5.10;;;3.80;99.90;;;;;;4963068;28;20232;-55
2024/01/22 11:37:37;;;;;;;11.85;4.55;;;3.90;99.90;;;;;;4973657;28;20038;-58
2024/01/22 11:40:11;;;;;;;9.77;3.67;;;3.80;99.90;;;;;;4972464;28;20050;-53
2024/01/22 11:42:39;;;;;;;14.20;4.25;;;3.70;99.90;;;;;;4973675;28;20042;-52
2024/01/22 11:45:14;;;;;;;11.35;4.30;;;3.70;99.90;;;;;;4965396;28;20129;-55
2024/01/22 11:47:42;;;;;;;13.52;6.13;;;3.70;99.90;;;;;;4973199;28;20046;-55
2024/01/22 11:50:11;;;;;;;12.95;5.63;;;3.60;99.90;;;;;;4973678;28;20098;-53
2024/01/22 11:52:38;;;;;;;14.10;6.22;;;3.60;99.90;;;;;;4972365;28;20035;-52
2024/01/22 11:55:07;;;;;;;13.38;6.13;;;3.50;99.90;;;;;;4965371;28;20043;-54
2024/01/22 11:57:36;;;;;;;15.18;6.28;;;3.40;99.90;;;;;;4967001;28;20047;-57
2024/01/22 12:00:11;;;;;;;21.80;9.13;;;3.30;99.90;;;;;;4971028;28;20074;-52
2024/01/22 12:02:41;;;;;;;25.02;7.70;;;3.30;99.90;;;;;;4972833;28;20050;-51
2024/01/22 12:05:11;;;;;;;18.52;5.28;;;3.30;99.90;;;;;;4965266;28;20038;-52
2024/01/22 12:07:40;;;;;;;12.52;4.20;;;3.30;99.90;;;;;;4966876;28;20054;-55
2024/01/22 12:10:19;;;;;;;17.00;4.25;;;3.20;99.90;;;;;;4965085;28;20053;-52
2024/01/22 12:13:03;;;;;;;23.05;9.13;;;3.10;99.90;;;;;;4962953;28;20295;-52
2024/01/22 12:15:32;;;;;;;50.45;20.70;;;2.90;99.90;;;;;;4967445;28;20074;-53
2024/01/22 12:18:02;;;;;;;30.27;11.82;;;2.80;99.90;;;;;;4955437;28;20101;-54
2024/01/22 12:20:30;;;;;;;37.08;5.38;;;2.80;99.90;;;;;;4972671;28;20038;-53
2024/01/22 12:23:04;;;;;;;27.02;4.93;;;2.90;99.90;;;;;;4962050;28;20043;-52
2024/01/22 12:25:36;;;;;;;50.67;6.10;;;2.90;99.90;;;;;;4972817;28;20489;-54
2024/01/22 12:28:10;;;;;;;15.43;4.00;;;2.90;99.90;;;;;;4970332;28;20051;-53
2024/01/22 12:30:41;;;;;;;19.08;3.53;;;2.80;99.90;;;;;;4951020;28;20137;-53
2024/01/22 12:33:22;;;;;;;15.70;4.15;;;2.80;99.90;;;;;;4970301;28;20061;-52
2024/01/22 12:36:10;;;;;;;21.75;4.53;;;2.80;99.90;;;;;;4971945;28;20467;-57
2024/01/22 12:38:51;;;;;;;33.78;5.47;;;2.80;99.90;;;;;;4972665;28;20407;-54
2024/01/22 12:41:20;;;;;;;44.25;7.97;;;2.80;99.90;;;;;;4972945;28;20042;-53
2024/01/22 12:43:47;;;;;;;33.95;5.35;;;2.80;99.90;;;;;;4972143;28;20411;-52
2024/01/22 12:46:19;;;;;;;23.15;4.90;;;2.80;99.90;;;;;;4972427;28;20043;-56
2024/01/22 12:48:46;;;;;;;12.77;4.20;;;2.80;99.90;;;;;;4968332;28;20050;-54
2024/01/22 12:51:14;;;;;;;;;;;2.70;99.90;;;;;;4973016;28;20125;-52
2024/01/22 12:53:42;;;;;;;17.38;4.18;;;2.80;99.90;;;;;;4965284;28;20017;-54
2024/01/22 12:56:09;;;;;;;13.95;4.43;;;2.70;99.90;;;;;;4963208;28;20489;-53
2024/01/22 12:58:37;;;;;;;12.48;4.82;;;2.80;99.90;;;;;;4971195;28;20115;-53